createdAt,value
2023-01-07T00:01:19.971Z,1.10
2023-01-07T00:03:48.968Z,1.55
2023-01-07T00:06:21.673Z,1.40
2023-01-07T00:08:51.288Z,1.33
2023-01-07T00:11:24.180Z,1.67
2023-01-07T00:13:53.525Z,1.57
2023-01-07T00:16:23.288Z,1.40
2023-01-07T00:18:52.618Z,1.40
2023-01-07T00:21:21.907Z,1.20
2023-01-07T00:23:53.337Z,1.20
2023-01-07T00:26:22.585Z,1.20
2023-01-07T00:28:51.690Z,1.17
2023-01-07T00:31:24.658Z,1.10
2023-01-07T00:33:59.437Z,1.10
2023-01-07T00:36:29.503Z,1.10
2023-01-07T00:39:03.932Z,1.20
2023-01-07T00:41:31.828Z,1.25
2023-01-07T00:43:59.625Z,1.00
2023-01-07T00:46:28.065Z,1.10
2023-01-07T00:48:55.771Z,1.00
2023-01-07T00:51:23.443Z,1.27
2023-01-07T00:53:50.915Z,1.38
2023-01-07T00:56:19.261Z,0.85
2023-01-07T00:58:47.091Z,1.30
2023-01-07T01:01:15.925Z,1.13
2023-01-07T01:03:43.671Z,0.90
2023-01-07T01:06:16.065Z,1.13
2023-01-07T01:08:45.532Z,1.05
2023-01-07T01:11:15.169Z,1.00
2023-01-07T01:13:44.184Z,1.00
2023-01-07T01:16:14.902Z,0.98
2023-01-07T01:18:43.345Z,1.10
2023-01-07T01:21:15.345Z,0.70
2023-01-07T01:23:43.824Z,0.80
2023-01-07T01:26:14.731Z,0.82
2023-01-07T01:28:43.721Z,0.90
2023-01-07T01:31:13.061Z,1.00
2023-01-07T01:33:55.989Z,1.25
2023-01-07T01:36:24.951Z,1.00
2023-01-07T01:38:55.078Z,1.10
2023-01-07T01:41:22.703Z,0.85
2023-01-07T01:43:53.299Z,1.10
2023-01-07T01:46:39.988Z,1.17
2023-01-07T01:49:27.957Z,0.90
2023-01-07T01:52:11.838Z,1.30
2023-01-07T01:54:44.249Z,1.00
2023-01-07T01:57:12.005Z,1.10
2023-01-07T01:59:44.528Z,1.10
2023-01-07T02:02:16.537Z,1.10
2023-01-07T02:04:44.394Z,1.10
2023-01-07T02:07:17.580Z,1.17
2023-01-07T02:10:05.971Z,1.05
2023-01-07T02:12:39.641Z,0.90
2023-01-07T02:15:15.262Z,1.00
2023-01-07T02:18:11.221Z,1.02
2023-01-07T02:21:03.330Z,1.08
2023-01-07T02:24:01.789Z,0.95
2023-01-07T02:27:11.259Z,0.90
2023-01-07T02:29:45.493Z,1.15
2023-01-07T02:32:52.816Z,1.00
2023-01-07T02:35:41.308Z,1.13
2023-01-07T02:38:11.882Z,1.30
2023-01-07T02:41:23.008Z,1.25
2023-01-07T02:44:04.119Z,1.10
2023-01-07T02:46:47.578Z,1.15
2023-01-07T02:49:17.345Z,1.00
2023-01-07T02:51:47.286Z,0.90
2023-01-07T02:54:23.470Z,0.88
2023-01-07T02:57:02.166Z,0.68
2023-01-07T02:59:38.476Z,0.80
2023-01-07T03:02:11.813Z,0.55
2023-01-07T03:05:10.062Z,0.63
2023-01-07T03:08:01.032Z,0.73
2023-01-07T03:10:50.032Z,0.60
2023-01-07T03:13:23.937Z,0.52
2023-01-07T03:15:53.368Z,0.90
2023-01-07T03:18:27.072Z,0.77
2023-01-07T03:21:06.147Z,0.77
2023-01-07T03:23:39.139Z,0.77
2023-01-07T03:26:09.052Z,0.90
2023-01-07T03:28:41.703Z,0.77
2023-01-07T03:31:13.990Z,0.70
2023-01-07T03:33:57.176Z,0.70
2023-01-07T03:36:30.481Z,0.70
2023-01-07T03:38:59.999Z,0.70
2023-01-07T03:41:46.821Z,0.65
2023-01-07T03:44:15.177Z,0.70
2023-01-07T03:46:44.109Z,0.60
2023-01-07T03:49:11.961Z,0.55
2023-01-07T03:51:39.756Z,0.82
2023-01-07T03:54:08.641Z,0.68
2023-01-07T03:56:36.597Z,0.68
2023-01-07T03:59:04.323Z,0.77
2023-01-07T04:01:32.072Z,0.70
2023-01-07T04:04:02.338Z,0.80
2023-01-07T04:06:31.084Z,0.60
2023-01-07T04:08:59.198Z,0.60
2023-01-07T04:11:27.122Z,0.63
2023-01-07T04:13:55.209Z,0.60
2023-01-07T04:16:22.978Z,0.60
2023-01-07T04:18:50.493Z,0.70
2023-01-07T04:21:18.301Z,0.70
2023-01-07T04:23:45.753Z,0.63
2023-01-07T04:26:13.500Z,0.50
2023-01-07T04:28:43.256Z,0.60
2023-01-07T04:31:10.933Z,0.70
2023-01-07T04:33:38.858Z,0.70
2023-01-07T04:36:06.990Z,0.80
2023-01-07T04:38:34.528Z,0.60
2023-01-07T04:41:02.188Z,0.80
2023-01-07T04:43:29.608Z,0.70
2023-01-07T04:45:57.194Z,0.77
2023-01-07T04:48:24.932Z,0.80
2023-01-07T04:50:54.793Z,0.70
2023-01-07T04:53:23.141Z,0.80
2023-01-07T04:55:50.959Z,0.70
2023-01-07T04:58:19.071Z,0.60
2023-01-07T05:00:49.078Z,0.80
2023-01-07T05:03:17.495Z,0.60
2023-01-07T05:05:45.812Z,0.80
2023-01-07T05:08:13.558Z,0.70
2023-01-07T05:10:41.132Z,0.80
2023-01-07T05:13:15.063Z,0.85
2023-01-07T05:15:46.179Z,0.70
2023-01-07T05:18:15.118Z,0.95
2023-01-07T05:20:43.688Z,0.80
2023-01-07T05:23:11.584Z,0.88
2023-01-07T05:25:40.682Z,0.80
2023-01-07T05:28:08.169Z,0.80
2023-01-07T05:30:39.644Z,0.70
2023-01-07T05:33:07.660Z,0.93
2023-01-07T05:39:48.577Z,0.70
2023-01-07T05:42:19.556Z,0.80
2023-01-07T05:44:47.224Z,0.90
2023-01-07T05:47:14.641Z,0.80
2023-01-07T05:49:42.179Z,0.80
2023-01-07T05:52:09.620Z,0.95
2023-01-07T05:54:37.198Z,0.98
2023-01-07T05:57:04.670Z,0.77
2023-01-07T05:59:34.910Z,0.70
2023-01-07T06:02:02.811Z,1.00
2023-01-07T06:04:30.614Z,0.90
2023-01-07T06:06:58.217Z,0.95
2023-01-07T06:09:25.686Z,1.00
2023-01-07T06:11:53.441Z,0.90
2023-01-07T06:14:20.868Z,0.90
2023-01-07T06:16:48.489Z,0.85
2023-01-07T06:19:15.951Z,0.90
2023-01-07T06:21:43.464Z,1.08
2023-01-07T06:24:11.404Z,0.68
2023-01-07T06:26:38.963Z,1.20
2023-01-07T06:29:06.460Z,0.70
2023-01-07T06:31:34.114Z,0.80
2023-01-07T06:34:01.683Z,0.70
2023-01-07T06:36:29.217Z,1.00
2023-01-07T06:38:56.687Z,0.90
2023-01-07T06:41:24.232Z,1.15
2023-01-07T06:43:51.711Z,0.93
2023-01-07T06:46:19.437Z,1.00
2023-01-07T06:48:48.072Z,0.90
2023-01-07T06:51:15.846Z,0.93
2023-01-07T06:53:43.311Z,0.70
2023-01-07T06:56:10.821Z,0.70
2023-01-07T06:58:38.383Z,0.70
2023-01-07T07:01:07.543Z,0.98
2023-01-07T07:03:35.181Z,0.60
2023-01-07T07:06:02.833Z,1.20
2023-01-07T07:08:30.356Z,1.55
2023-01-07T07:10:57.923Z,5.60
2023-01-07T07:13:25.500Z,2.47
2023-01-07T07:15:53.083Z,1.02
2023-01-07T07:18:20.733Z,1.35
2023-01-07T07:20:49.029Z,1.00
2023-01-07T07:23:16.573Z,7.15
2023-01-07T07:25:44.150Z,1.35
2023-01-07T07:28:11.660Z,1.15
2023-01-07T07:30:51.109Z,1.10
2023-01-07T07:33:19.668Z,1.00
2023-01-07T07:35:48.011Z,0.85
2023-01-07T07:38:17.991Z,1.00
2023-01-07T07:40:46.769Z,1.00
2023-01-07T07:43:15.437Z,1.10
2023-01-07T07:45:43.454Z,0.90
2023-01-07T07:48:13.436Z,0.80
2023-01-07T07:50:41.318Z,0.85
2023-01-07T07:53:10.525Z,0.65
2023-01-07T07:55:39.591Z,0.60
2023-01-07T07:58:07.367Z,0.50
2023-01-07T08:00:34.998Z,0.80
2023-01-07T08:03:02.697Z,0.90
2023-01-07T08:05:30.927Z,2.20
2023-01-07T08:07:58.795Z,2.35
2023-01-07T08:10:28.119Z,2.10
2023-01-07T08:12:55.618Z,1.73
2023-01-07T08:15:23.159Z,1.30
2023-01-07T08:17:58.330Z,1.10
2023-01-07T08:20:25.929Z,1.10
2023-01-07T08:22:53.720Z,0.98
2023-01-07T08:25:21.224Z,1.02
2023-01-07T08:27:48.662Z,1.08
2023-01-07T08:30:17.187Z,0.77
2023-01-07T08:32:44.687Z,0.90
2023-01-07T08:35:12.217Z,0.70
2023-01-07T08:37:39.708Z,0.43
2023-01-07T08:40:07.667Z,0.50
2023-01-07T08:42:35.199Z,0.47
2023-01-07T08:45:02.992Z,0.70
2023-01-07T08:47:30.938Z,0.68
2023-01-07T08:49:58.519Z,0.50
2023-01-07T08:52:26.468Z,0.40
2023-01-07T08:54:53.999Z,0.90
2023-01-07T08:57:21.453Z,0.85
2023-01-07T08:59:49.059Z,1.15
2023-01-07T09:02:20.973Z,1.20
2023-01-07T09:04:48.705Z,1.17
2023-01-07T09:07:16.164Z,1.30
2023-01-07T09:09:43.775Z,1.17
2023-01-07T09:12:11.378Z,1.13
2023-01-07T09:14:38.969Z,1.08
2023-01-07T09:17:06.459Z,0.98
2023-01-07T09:19:33.994Z,1.00
2023-01-07T09:22:01.522Z,0.90
2023-01-07T09:24:29.009Z,1.00
2023-01-07T09:26:56.510Z,0.65
2023-01-07T09:29:24.088Z,0.88
2023-01-07T09:31:51.623Z,0.90
2023-01-07T09:34:19.342Z,0.80
2023-01-07T09:36:46.765Z,0.65
2023-01-07T09:39:14.526Z,0.70
2023-01-07T09:42:09.253Z,0.50
2023-01-07T09:45:10.462Z,0.70
2023-01-07T09:47:42.392Z,0.43
2023-01-07T09:50:32.754Z,0.65
2023-01-07T09:53:06.255Z,0.70
2023-01-07T09:55:38.899Z,0.90
2023-01-07T09:58:29.593Z,0.90
2023-01-07T10:01:05.781Z,0.98
2023-01-07T10:03:43.881Z,1.00
2023-01-07T10:06:43.589Z,0.80
2023-01-07T10:09:23.744Z,1.00
2023-01-07T10:12:00.571Z,1.40
2023-01-07T10:15:05.407Z,0.95
2023-01-07T10:20:38.819Z,1.00
2023-01-07T10:23:32.089Z,1.30
2023-01-07T10:26:02.508Z,1.10
2023-01-07T10:28:45.430Z,1.42
2023-01-07T10:31:22.697Z,1.42
2023-01-07T10:33:52.334Z,1.70
2023-01-07T10:36:38.527Z,2.97
2023-01-07T10:39:41.339Z,3.45
2023-01-07T10:42:27.494Z,3.15
2023-01-07T10:44:57.904Z,3.47
2023-01-07T10:47:50.681Z,3.28
2023-01-07T10:50:52.341Z,3.15
2023-01-07T10:53:19.883Z,3.20
2023-01-07T10:56:26.487Z,3.08
2023-01-07T10:58:54.033Z,4.45
2023-01-07T11:01:30.091Z,4.78
2023-01-07T11:04:00.085Z,5.10
2023-01-07T11:06:55.807Z,5.57
2023-01-07T11:09:41.415Z,5.50
2023-01-07T11:13:06.389Z,6.18
2023-01-07T11:15:40.005Z,5.15
2023-01-07T11:18:16.577Z,5.05
2023-01-07T11:20:53.219Z,4.50
2023-01-07T11:23:30.257Z,3.45
2023-01-07T11:26:25.011Z,3.20
2023-01-07T11:28:58.067Z,2.80
2023-01-07T11:31:52.409Z,2.03
2023-01-07T11:34:26.819Z,1.58
2023-01-07T11:36:54.973Z,1.60
2023-01-07T11:39:26.162Z,1.20
2023-01-07T11:41:59.402Z,1.50
2023-01-07T11:44:27.591Z,1.35
2023-01-07T11:46:55.560Z,1.50
2023-01-07T11:49:29.496Z,1.25
2023-01-07T11:54:29.585Z,0.90
2023-01-07T11:57:21.032Z,1.35
2023-01-07T11:59:48.694Z,1.33
2023-01-07T12:02:25.691Z,1.77
2023-01-07T12:05:17.010Z,1.70
2023-01-07T12:07:51.589Z,1.60
2023-01-07T12:10:29.271Z,2.13
2023-01-07T12:12:58.782Z,1.92
2023-01-07T12:15:30.594Z,1.90
2023-01-07T12:18:07.342Z,1.92
2023-01-07T12:20:56.741Z,2.20
2023-01-07T12:24:01.692Z,2.10
2023-01-07T12:26:55.378Z,2.58
2023-01-07T12:29:51.693Z,2.30
2023-01-07T12:32:40.219Z,1.92
2023-01-07T12:35:33.966Z,2.28
2023-01-07T12:38:23.145Z,2.35
2023-01-07T12:41:00.568Z,2.30
2023-01-07T12:43:40.156Z,2.40
2023-01-07T12:46:12.319Z,1.83
2023-01-07T12:48:58.342Z,1.98
2023-01-07T12:51:34.192Z,1.77
2023-01-07T12:54:24.717Z,1.70
2023-01-07T12:56:58.721Z,1.80
2023-01-07T13:02:35.390Z,1.50
2023-01-07T13:05:21.772Z,1.67
2023-01-07T13:07:58.461Z,1.40
2023-01-07T13:10:35.810Z,1.58
2023-01-07T13:13:12.909Z,1.25
2023-01-07T13:15:41.826Z,1.30
2023-01-07T13:18:12.388Z,1.15
2023-01-07T13:20:52.142Z,1.10
2023-01-07T13:23:25.816Z,1.20
2023-01-07T13:26:06.700Z,1.10
2023-01-07T13:29:01.758Z,1.20
2023-01-07T13:32:06.710Z,1.40
2023-01-07T13:35:00.422Z,1.73
2023-01-07T13:37:52.837Z,1.60
2023-01-07T13:40:49.481Z,1.30
2023-01-07T13:43:53.988Z,2.05
2023-01-07T13:46:35.386Z,1.92
2023-01-07T13:49:03.579Z,2.30
2023-01-07T13:51:38.000Z,2.63
2023-01-07T13:54:05.663Z,2.80
2023-01-07T13:56:36.018Z,2.58
2023-01-07T13:59:04.058Z,3.55
2023-01-07T14:02:29.820Z,3.30
2023-01-07T14:05:15.034Z,4.10
2023-01-07T14:07:54.029Z,4.22
2023-01-07T14:10:34.979Z,3.90
2023-01-07T14:13:05.474Z,4.25
2023-01-07T14:15:57.677Z,3.65
2023-01-07T14:18:33.780Z,3.35
2023-01-07T14:21:40.137Z,3.92
2023-01-07T14:24:29.229Z,3.58
2023-01-07T14:27:07.652Z,3.55
2023-01-07T14:29:47.094Z,3.45
2023-01-07T14:32:37.597Z,3.15
2023-01-07T14:35:19.282Z,3.65
2023-01-07T14:37:47.280Z,3.17
2023-01-07T14:40:35.212Z,3.42
2023-01-07T14:43:04.085Z,3.72
2023-01-07T14:45:37.783Z,4.30
2023-01-07T14:48:08.107Z,4.10
2023-01-07T14:50:55.544Z,4.55
2023-01-07T14:53:43.211Z,3.53
2023-01-07T14:56:38.442Z,3.90
2023-01-07T14:59:08.627Z,4.30
2023-01-07T15:01:51.502Z,4.40
2023-01-07T15:04:32.669Z,4.60
2023-01-07T15:07:02.327Z,4.35
2023-01-07T15:10:05.090Z,4.88
2023-01-07T15:13:14.479Z,4.75
2023-01-07T15:16:01.896Z,5.50
2023-01-07T15:18:31.570Z,4.78
2023-01-07T15:21:19.289Z,6.10
2023-01-07T15:23:56.174Z,6.07
2023-01-07T15:26:29.696Z,6.22
2023-01-07T15:29:15.407Z,6.35
2023-01-07T15:31:51.868Z,7.32
2023-01-07T15:34:21.088Z,7.22
2023-01-07T15:36:51.561Z,7.20
2023-01-07T15:39:22.103Z,6.97
2023-01-07T15:41:54.725Z,6.50
2023-01-07T15:44:26.778Z,6.70
2023-01-07T15:46:55.477Z,5.80
2023-01-07T15:49:28.141Z,6.13
2023-01-07T15:51:58.565Z,5.75
2023-01-07T15:54:37.684Z,6.22
2023-01-07T15:57:16.663Z,5.60
2023-01-07T15:59:48.008Z,6.50
2023-01-07T16:02:28.013Z,5.63
2023-01-07T16:04:59.171Z,6.47
2023-01-07T16:07:29.731Z,6.35
2023-01-07T16:09:58.716Z,6.10
2023-01-07T16:12:35.877Z,5.90
2023-01-07T16:15:23.310Z,5.85
2023-01-07T16:18:14.880Z,5.80
2023-01-07T16:20:49.418Z,5.20
2023-01-07T16:23:31.466Z,5.72
2023-01-07T16:26:03.633Z,5.55
2023-01-07T16:28:39.890Z,6.03
2023-01-07T16:31:13.707Z,5.82
2023-01-07T16:36:31.340Z,4.20
2023-01-07T16:39:04.538Z,4.15
2023-01-07T16:41:32.585Z,4.65
2023-01-07T16:44:00.632Z,4.40
2023-01-07T16:46:39.016Z,4.05
2023-01-07T16:49:09.683Z,3.45
2023-01-07T16:52:14.279Z,3.45
2023-01-07T16:54:46.350Z,3.20
2023-01-07T16:57:14.547Z,3.33
2023-01-07T16:59:55.529Z,3.30
2023-01-07T17:03:00.833Z,3.50
2023-01-07T17:05:31.230Z,3.58
2023-01-07T17:08:05.827Z,3.10
2023-01-07T17:10:40.767Z,3.38
2023-01-07T17:13:35.615Z,2.90
2023-01-07T17:16:23.327Z,2.85
2023-01-07T17:18:51.838Z,2.53
2023-01-07T17:21:41.574Z,2.60
2023-01-07T17:24:23.532Z,2.38
2023-01-07T17:26:51.680Z,2.30
2023-01-07T17:29:19.960Z,2.60
2023-01-07T17:31:47.772Z,2.70
2023-01-07T17:34:16.181Z,2.90
2023-01-07T17:36:44.055Z,2.85
2023-01-07T17:39:12.000Z,2.50
2023-01-07T17:41:57.941Z,2.45
2023-01-07T17:44:25.828Z,2.72
2023-01-07T17:46:53.323Z,2.40
2023-01-07T17:49:20.980Z,3.03
2023-01-07T17:51:49.519Z,3.30
2023-01-07T17:54:25.674Z,3.95
2023-01-07T17:56:53.283Z,3.85
2023-01-07T17:59:23.465Z,3.55
2023-01-07T18:01:53.352Z,3.50
2023-01-07T18:04:21.655Z,3.60
2023-01-07T18:06:49.244Z,4.13
2023-01-07T18:09:16.831Z,3.90
2023-01-07T18:12:05.191Z,3.47
2023-01-07T18:14:33.320Z,3.00
2023-01-07T18:17:00.945Z,3.25
2023-01-07T18:19:28.517Z,3.92
2023-01-07T18:21:56.238Z,3.65
2023-01-07T18:24:24.170Z,3.58
2023-01-07T18:26:51.570Z,3.65
2023-01-07T18:29:19.355Z,3.75
2023-01-07T18:31:46.909Z,3.97
2023-01-07T18:34:15.334Z,4.53
2023-01-07T18:36:42.990Z,4.50
2023-01-07T18:39:19.220Z,4.18
2023-01-07T18:41:50.898Z,4.75
2023-01-07T18:44:19.441Z,4.78
2023-01-07T18:46:47.576Z,7.60
2023-01-07T18:49:15.213Z,5.95
2023-01-07T18:51:43.183Z,5.85
2023-01-07T18:54:10.788Z,5.65
2023-01-07T18:56:38.396Z,6.93
2023-01-07T18:59:06.079Z,6.75
2023-01-07T19:01:33.787Z,6.72
2023-01-07T19:04:01.503Z,7.47
2023-01-07T19:06:29.080Z,7.00
2023-01-07T19:08:57.027Z,6.50
2023-01-07T19:11:24.549Z,6.35
2023-01-07T19:13:52.087Z,6.78
2023-01-07T19:16:19.673Z,6.93
2023-01-07T19:18:47.310Z,6.53
2023-01-07T19:21:14.826Z,6.70
2023-01-07T19:23:42.418Z,6.68
2023-01-07T19:26:12.218Z,6.65
2023-01-07T19:28:39.839Z,7.10
2023-01-07T19:31:08.155Z,7.35
2023-01-07T19:33:36.804Z,7.65
2023-01-07T19:36:10.782Z,7.47
2023-01-07T19:38:40.264Z,7.60
2023-01-07T19:41:13.166Z,8.02
2023-01-07T19:43:40.790Z,8.43
2023-01-07T19:46:09.980Z,8.55
2023-01-07T19:48:37.817Z,8.93
2023-01-07T19:51:06.684Z,9.30
2023-01-07T19:53:35.622Z,9.32
2023-01-07T19:56:05.917Z,9.95
2023-01-07T19:58:35.356Z,10.68
2023-01-07T20:01:08.787Z,11.90
2023-01-07T20:03:37.319Z,10.60
2023-01-07T20:06:06.697Z,12.65
2023-01-07T20:08:34.609Z,11.30
2023-01-07T20:11:02.331Z,10.27
2023-01-07T20:13:33.891Z,11.32
2023-01-07T20:16:09.662Z,10.80
2023-01-07T20:18:39.108Z,11.65
2023-01-07T20:21:07.366Z,10.60
2023-01-07T20:23:36.438Z,10.85
2023-01-07T20:26:07.408Z,10.68
2023-01-07T20:28:35.714Z,9.88
2023-01-07T20:31:09.737Z,10.35
2023-01-07T20:33:37.727Z,10.48
2023-01-07T20:36:08.572Z,9.57
2023-01-07T20:38:36.850Z,10.27
2023-01-07T20:41:05.896Z,10.00
2023-01-07T20:43:35.557Z,10.45
2023-01-07T20:46:06.006Z,11.32
2023-01-07T20:48:34.559Z,10.73
2023-01-07T20:51:09.461Z,10.63
2023-01-07T20:53:37.706Z,10.18
2023-01-07T20:56:06.142Z,10.32
2023-01-07T20:58:35.541Z,10.23
2023-01-07T21:01:05.623Z,11.45
2023-01-07T21:03:35.259Z,11.07
2023-01-07T21:06:02.918Z,12.88
2023-01-07T21:08:30.463Z,12.90
2023-01-07T21:10:58.076Z,12.88
2023-01-07T21:13:25.998Z,12.05
2023-01-07T21:15:54.390Z,12.35
2023-01-07T21:18:21.874Z,12.35
2023-01-07T21:20:49.443Z,12.23
2023-01-07T21:23:16.951Z,13.32
2023-01-07T21:25:48.336Z,12.73
2023-01-07T21:28:15.990Z,11.88
2023-01-07T21:30:43.607Z,14.20
2023-01-07T21:33:11.295Z,14.20
2023-01-07T21:35:42.241Z,14.82
2023-01-07T21:38:09.973Z,14.07
2023-01-07T21:40:39.521Z,14.35
2023-01-07T21:43:07.060Z,15.15
2023-01-07T21:45:34.591Z,13.88
2023-01-07T21:48:02.367Z,14.57
2023-01-07T21:50:29.952Z,13.68
2023-01-07T21:52:57.765Z,13.65
2023-01-07T21:55:25.217Z,12.73
2023-01-07T21:57:52.786Z,11.30
2023-01-07T22:00:20.475Z,11.65
2023-01-07T22:02:48.060Z,10.90
2023-01-07T22:05:15.612Z,12.27
2023-01-07T22:07:43.185Z,12.38
2023-01-07T22:10:10.854Z,11.80
2023-01-07T22:12:38.584Z,11.95
2023-01-07T22:15:06.444Z,12.55
2023-01-07T22:17:34.014Z,12.88
2023-01-07T22:20:01.940Z,12.85
2023-01-07T22:22:29.493Z,12.32
2023-01-07T22:24:56.944Z,13.05
2023-01-07T22:27:24.541Z,12.75
2023-01-07T22:29:51.998Z,11.88
2023-01-07T22:32:19.654Z,11.35
2023-01-07T22:34:47.106Z,10.82
2023-01-07T22:37:19.227Z,11.15
2023-01-07T22:39:54.084Z,10.18
2023-01-07T22:42:29.235Z,10.00
2023-01-07T22:45:02.820Z,10.55
2023-01-07T22:47:36.062Z,10.70
2023-01-07T22:50:06.458Z,10.45
2023-01-07T22:52:35.701Z,9.85
2023-01-07T22:55:04.132Z,10.10
2023-01-07T22:57:32.194Z,9.70
2023-01-07T23:00:00.725Z,10.00
2023-01-07T23:02:28.655Z,9.65
2023-01-07T23:04:56.117Z,11.35
2023-01-07T23:07:23.705Z,10.90
2023-01-07T23:09:51.719Z,10.80
2023-01-07T23:12:19.303Z,10.30
2023-01-07T23:14:46.745Z,10.70
2023-01-07T23:17:14.545Z,10.82
2023-01-07T23:19:41.958Z,10.55
2023-01-07T23:22:09.505Z,10.45
2023-01-07T23:24:37.455Z,10.73
2023-01-07T23:27:05.258Z,10.50
2023-01-07T23:29:32.756Z,10.60
2023-01-07T23:32:00.341Z,9.63
2023-01-07T23:34:27.831Z,10.32
2023-01-07T23:36:55.335Z,10.38
2023-01-07T23:39:23.156Z,10.23
2023-01-07T23:41:50.715Z,10.27
2023-01-07T23:44:18.167Z,10.13
2023-01-07T23:46:45.877Z,10.27
2023-01-07T23:49:13.320Z,9.80
2023-01-07T23:51:41.586Z,10.60
2023-01-07T23:54:09.918Z,10.77
2023-01-07T23:56:37.515Z,10.70
2023-01-07T23:59:04.999Z,11.02
